Shell Fueler — WZW7217 — position and weather

sailwx.info

Track history (hours):
 
Tides and Currents Weather Stations Pressure Air Temp Water Temp Dewpoint Dewpoint Depression Visibility Wind Speed Wind Dir Waves Ship Positions

Shell Fueler

Owner: JOHN W STONE OIL DIST .LLC, GRETNA, LA. More information available from US FCC via Universal Licensing System and Coast Guard Vessel Documentation Center.

Last reported at 2015-Aug-30 07:31 UTC. Time now 2015-Aug-30 07:53 UTC.
Position N 29°55' W 090°04'.

Length 21 m; draft 2.5 m.

Type: Towing. MMSI: 366954210.

Date/timePositionNaut miles runAvg speedWind from/ knotsBaromVisibWave heightAir tempDewpointWater temp
2015-Aug-30 07:31N 29°55' W 090°04'0 0.0
2015-Aug-30 06:33N 29°55' W 090°04'0 0.0
2015-Aug-30 05:33N 29°55' W 090°04'0 0.0
2015-Aug-30 04:32N 29°55' W 090°04'0 0.0
2015-Aug-30 03:32N 29°55' W 090°04'0 0.0
2015-Aug-30 02:33N 29°55' W 090°04'0 0.0
2015-Aug-30 01:31N 29°55' W 090°04'0 0.0
2015-Aug-29 09:33N 29°55' W 090°04'0 0.0
2015-Aug-29 04:21N 29°56' W 090°04'0 0.0
2015-Aug-29 03:33N 29°56' W 090°04'0 0.0
2015-Aug-29 02:33N 29°56' W 090°04'0 0.0
2015-Aug-29 01:30N 29°56' W 090°04'0 0.0
2015-Aug-29 00:29N 29°56' W 090°04'0 0.0
2015-Aug-28 23:33N 29°56' W 090°04'4 3.1
2015-Aug-28 22:20N 29°55' W 090°08'4 0.1
2015-Aug-27 12:05N 29°55' W 090°04'0 0.0
2015-Aug-27 10:18N 29°55' W 090°04'0 0.0
2015-Aug-27 09:28N 29°55' W 090°04'1 1.3
2015-Aug-27 08:33N 29°55' W 090°05'0 0.0
2015-Aug-27 07:30N 29°55' W 090°05'5 0.2
2015-Aug-26 03:19N 29°56' W 089°59'4 4.6
2015-Aug-26 02:31N 29°56' W 090°04'0 0.3
2015-Aug-26 01:33N 29°55' W 090°04'3 0.3
2015-Aug-25 14:28N 29°56' W 090°00'3 3.3
2015-Aug-25 13:29N 29°57' W 090°04'2 0.2
2015-Aug-25 04:15N 29°55' W 090°04'2 2.5
2015-Aug-25 03:33N 29°55' W 090°05'2 1.5
2015-Aug-25 02:32N 29°54' W 090°07'0 0.0
2015-Aug-25 01:32N 29°54' W 090°07'0 0.0
2015-Aug-25 00:07N 29°54' W 090°07'0 0.2
2015-Aug-24 23:30N 29°54' W 090°07'1 0.8
2015-Aug-24 22:27N 29°54' W 090°06'2 2.8
2015-Aug-24 21:33N 29°55' W 090°04'0 0.0
2015-Aug-24 20:34N 29°55' W 090°04'0 0.0
2015-Aug-24 19:31N 29°55' W 090°04'2 1.6
2015-Aug-24 18:28N 29°57' W 090°03'3 0.8
2015-Aug-24 14:32N 29°56' W 089°60'0 0.1
2015-Aug-24 13:11N 29°56' W 089°60'3 4.6
2015-Aug-24 12:33N 29°58' W 090°03'2 2.2
2015-Aug-24 11:33N 29°55' W 090°04'0 0.0
2015-Aug-24 10:27N 29°55' W 090°04'0 0.0
2015-Aug-24 09:27N 29°55' W 090°04'2 2.5
2015-Aug-24 08:30N 29°57' W 090°02'1 1.2
2015-Aug-24 07:19N 29°56' W 090°00'0 0.1
2015-Aug-24 06:08N 29°56' W 090°00'0 0.0
2015-Aug-24 05:26N 29°56' W 090°00'0 0.0
2015-Aug-23 03:14N 29°57' W 090°00'2 2.0
2015-Aug-23 02:25N 29°57' W 090°02'2 2.7
2015-Aug-23 01:32N 29°55' W 090°04'0 0.0
2015-Aug-23 00:31N 29°55' W 090°04'2 2.0
2015-Aug-22 23:31N 29°57' W 090°03'4 0.1
2015-Aug-21 15:30N 29°54' W 090°07'0 0.0
2015-Aug-21 14:33N 29°54' W 090°07'2 1.7
2015-Aug-21 13:33N 29°55' W 090°05'0 0.0
2015-Aug-21 12:30N 29°55' W 090°05'0 0.1
2015-Aug-21 11:33N 29°55' W 090°05'0 0.0
2015-Aug-21 10:33N 29°55' W 090°05'0 0.0
2015-Aug-21 09:32N 29°55' W 090°05'1 1.2
2015-Aug-21 08:33N 29°55' W 090°04'0 0.0
2015-Aug-21 07:34N 29°55' W 090°04'0 0.0
2015-Aug-21 06:34N 29°55' W 090°04'0 0.0
2015-Aug-21 05:33N 29°55' W 090°04'0 0.1
2015-Aug-21 04:31N 29°55' W 090°04'0 0.2
2015-Aug-21 03:33N 29°55' W 090°04'0 0.0
2015-Aug-21 02:23N 29°55' W 090°04'  
Track history (hours):
 
Tides and Currents Weather Stations Pressure Air Temp Water Temp Dewpoint Dewpoint Depression Visibility Wind Speed Wind Dir Waves Ship Positions

Shell Fueler

Owner: JOHN W STONE OIL DIST .LLC, GRETNA, LA. More information available from US FCC via Universal Licensing System and Coast Guard Vessel Documentation Center.

Last reported at 2015-Aug-30 07:31 UTC. Time now 2015-Aug-30 07:53 UTC.
Position N 29°55' W 090°04'.

Length 21 m; draft 2.5 m.

Type: Towing. MMSI: 366954210.

Date/timePositionNaut miles runAvg speedWind from/ knotsBaromVisibWave heightAir tempDewpointWater temp
2015-Aug-30 07:31N 29°55' W 090°04'0 0.0
2015-Aug-30 06:33N 29°55' W 090°04'0 0.0
2015-Aug-30 05:33N 29°55' W 090°04'0 0.0
2015-Aug-30 04:32N 29°55' W 090°04'0 0.0
2015-Aug-30 03:32N 29°55' W 090°04'0 0.0
2015-Aug-30 02:33N 29°55' W 090°04'0 0.0
2015-Aug-30 01:31N 29°55' W 090°04'0 0.0
2015-Aug-29 09:33N 29°55' W 090°04'0 0.0
2015-Aug-29 04:21N 29°56' W 090°04'0 0.0
2015-Aug-29 03:33N 29°56' W 090°04'0 0.0
2015-Aug-29 02:33N 29°56' W 090°04'0 0.0
2015-Aug-29 01:30N 29°56' W 090°04'0 0.0
2015-Aug-29 00:29N 29°56' W 090°04'0 0.0
2015-Aug-28 23:33N 29°56' W 090°04'4 3.1
2015-Aug-28 22:20N 29°55' W 090°08'4 0.1
2015-Aug-27 12:05N 29°55' W 090°04'0 0.0
2015-Aug-27 10:18N 29°55' W 090°04'0 0.0
2015-Aug-27 09:28N 29°55' W 090°04'1 1.3
2015-Aug-27 08:33N 29°55' W 090°05'0 0.0
2015-Aug-27 07:30N 29°55' W 090°05'5 0.2
2015-Aug-26 03:19N 29°56' W 089°59'4 4.6
2015-Aug-26 02:31N 29°56' W 090°04'0 0.3
2015-Aug-26 01:33N 29°55' W 090°04'3 0.3
2015-Aug-25 14:28N 29°56' W 090°00'3 3.3
2015-Aug-25 13:29N 29°57' W 090°04'2 0.2
2015-Aug-25 04:15N 29°55' W 090°04'2 2.5
2015-Aug-25 03:33N 29°55' W 090°05'2 1.5
2015-Aug-25 02:32N 29°54' W 090°07'0 0.0
2015-Aug-25 01:32N 29°54' W 090°07'0 0.0
2015-Aug-25 00:07N 29°54' W 090°07'0 0.2
2015-Aug-24 23:30N 29°54' W 090°07'1 0.8
2015-Aug-24 22:27N 29°54' W 090°06'2 2.8
2015-Aug-24 21:33N 29°55' W 090°04'0 0.0
2015-Aug-24 20:34N 29°55' W 090°04'0 0.0
2015-Aug-24 19:31N 29°55' W 090°04'2 1.6
2015-Aug-24 18:28N 29°57' W 090°03'3 0.8
2015-Aug-24 14:32N 29°56' W 089°60'0 0.1
2015-Aug-24 13:11N 29°56' W 089°60'3 4.6
2015-Aug-24 12:33N 29°58' W 090°03'2 2.2
2015-Aug-24 11:33N 29°55' W 090°04'0 0.0
2015-Aug-24 10:27N 29°55' W 090°04'0 0.0
2015-Aug-24 09:27N 29°55' W 090°04'2 2.5
2015-Aug-24 08:30N 29°57' W 090°02'1 1.2
2015-Aug-24 07:19N 29°56' W 090°00'0 0.1
2015-Aug-24 06:08N 29°56' W 090°00'0 0.0
2015-Aug-24 05:26N 29°56' W 090°00'0 0.0
2015-Aug-23 03:14N 29°57' W 090°00'2 2.0
2015-Aug-23 02:25N 29°57' W 090°02'2 2.7
2015-Aug-23 01:32N 29°55' W 090°04'0 0.0
2015-Aug-23 00:31N 29°55' W 090°04'2 2.0
2015-Aug-22 23:31N 29°57' W 090°03'4 0.1
2015-Aug-21 15:30N 29°54' W 090°07'0 0.0
2015-Aug-21 14:33N 29°54' W 090°07'2 1.7
2015-Aug-21 13:33N 29°55' W 090°05'0 0.0
2015-Aug-21 12:30N 29°55' W 090°05'0 0.1
2015-Aug-21 11:33N 29°55' W 090°05'0 0.0
2015-Aug-21 10:33N 29°55' W 090°05'0 0.0
2015-Aug-21 09:32N 29°55' W 090°05'1 1.2
2015-Aug-21 08:33N 29°55' W 090°04'0 0.0
2015-Aug-21 07:34N 29°55' W 090°04'0 0.0
2015-Aug-21 06:34N 29°55' W 090°04'0 0.0
2015-Aug-21 05:33N 29°55' W 090°04'0 0.1
2015-Aug-21 04:31N 29°55' W 090°04'0 0.2
2015-Aug-21 03:33N 29°55' W 090°04'0 0.0
2015-Aug-21 02:23N 29°55' W 090°04'  

Dump ship's entire track history